createdAt,value
2018-07-28T00:01:09.428Z,1002.8
2018-07-28T00:02:19.370Z,1002.8
2018-07-28T00:03:28.259Z,1002.83
2018-07-28T00:04:37.921Z,1002.81
2018-07-28T00:05:47.066Z,1002.77
2018-07-28T00:06:56.233Z,1002.81
2018-07-28T00:08:05.386Z,1002.78
2018-07-28T00:09:15.109Z,1002.78
2018-07-28T00:10:24.526Z,1002.77
2018-07-28T00:11:33.944Z,1002.74
2018-07-28T00:12:43.343Z,1002.76
2018-07-28T00:13:52.766Z,1002.77
2018-07-28T00:15:02.432Z,1002.75
2018-07-28T00:16:11.844Z,1002.76
2018-07-28T00:17:21.510Z,1002.74
2018-07-28T00:18:30.936Z,1002.73
2018-07-28T00:19:40.342Z,1002.73
2018-07-28T00:20:49.491Z,1002.79
2018-07-28T00:21:58.905Z,1002.76
2018-07-28T00:23:08.325Z,1002.8
2018-07-28T00:24:17.470Z,1002.77
2018-07-28T00:25:26.624Z,1002.74
2018-07-28T00:26:35.505Z,1002.77
2018-07-28T00:27:44.909Z,1002.76
2018-07-28T00:28:53.811Z,1002.71
2018-07-28T00:30:02.951Z,1002.66
2018-07-28T00:31:12.100Z,1002.62
2018-07-28T00:32:21.260Z,1002.65
2018-07-28T00:33:30.408Z,1002.65
2018-07-28T00:34:39.067Z,1002.68
2018-07-28T00:35:48.471Z,1002.66
2018-07-28T00:36:57.630Z,1002.65
2018-07-28T00:38:07.291Z,1002.65
2018-07-28T00:39:16.701Z,1002.63
2018-07-28T00:40:25.606Z,1002.63
2018-07-28T00:41:35.007Z,1002.62
2018-07-28T00:42:44.414Z,1002.58
2018-07-28T00:43:53.327Z,1002.56
2018-07-28T00:45:02.762Z,1002.57
2018-07-28T00:46:11.658Z,1002.55
2018-07-28T00:47:21.321Z,1002.56
2018-07-28T00:48:30.974Z,1002.51
2018-07-28T00:49:40.408Z,1002.49
2018-07-28T00:50:49.560Z,1002.46
2018-07-28T00:51:59.219Z,1002.48
2018-07-28T00:53:08.382Z,1002.41
2018-07-28T00:54:17.310Z,1002.42
2018-07-28T00:55:26.453Z,1002.41
2018-07-28T00:56:35.878Z,1002.41
2018-07-28T00:57:45.292Z,1002.39
2018-07-28T00:58:53.928Z,1002.41
2018-07-28T01:00:03.075Z,1002.41
2018-07-28T01:01:12.390Z,1002.44
2018-07-28T01:02:21.308Z,1002.41
2018-07-28T01:03:30.455Z,1002.45
2018-07-28T01:04:39.857Z,1002.49
2018-07-28T01:05:49.259Z,1002.47
2018-07-28T01:06:58.407Z,1002.49
2018-07-28T01:08:07.834Z,1002.48
2018-07-28T01:09:17.520Z,1002.49
2018-07-28T01:10:26.931Z,1002.45
2018-07-28T01:11:36.600Z,1002.45
2018-07-28T01:12:46.295Z,1002.41
2018-07-28T01:13:55.951Z,1002.43
2018-07-28T01:15:05.888Z,1002.46
2018-07-28T01:16:15.289Z,1002.44
2018-07-28T01:17:24.189Z,1002.45
2018-07-28T01:18:33.862Z,1002.48
2018-07-28T01:19:43.032Z,1002.47
2018-07-28T01:20:51.977Z,1002.57
2018-07-28T01:22:01.384Z,1002.6
2018-07-28T01:23:11.060Z,1002.73
2018-07-28T01:24:19.951Z,1002.75
2018-07-28T01:25:29.353Z,1002.81
2018-07-28T01:26:38.779Z,1002.82
2018-07-28T01:27:47.673Z,1002.79
2018-07-28T01:28:56.590Z,1002.74
2018-07-28T01:30:05.999Z,1002.69
2018-07-28T01:31:15.413Z,1002.66
2018-07-28T01:32:25.064Z,1002.76
2018-07-28T01:33:34.484Z,1002.82
2018-07-28T01:34:43.906Z,1002.91
2018-07-28T01:35:53.313Z,1002.91
2018-07-28T01:37:02.729Z,1002.9
2018-07-28T01:38:12.160Z,1002.83
2018-07-28T01:39:21.303Z,1002.72
2018-07-28T01:40:30.449Z,1002.61
2018-07-28T01:41:40.136Z,1002.62
2018-07-28T01:42:49.026Z,1002.69
2018-07-28T01:43:58.686Z,1002.77
2018-07-28T01:45:08.367Z,1002.81
2018-07-28T01:46:17.769Z,1002.93
2018-07-28T01:47:26.704Z,1002.88
2018-07-28T01:48:35.858Z,1002.87
2018-07-28T01:49:45.290Z,1002.8
2018-07-28T01:50:54.703Z,1002.68
2018-07-28T01:52:03.879Z,1002.65
2018-07-28T01:53:13.042Z,1002.57
2018-07-28T01:54:21.941Z,1002.51
2018-07-28T01:55:31.096Z,1002.51
2018-07-28T01:56:39.988Z,1002.44
2018-07-28T01:57:49.405Z,1002.38
2018-07-28T01:58:58.820Z,1002.33
2018-07-28T02:00:08.247Z,1002.27
2018-07-28T02:01:17.415Z,1002.24
2018-07-28T02:02:27.096Z,1002.27
2018-07-28T02:03:36.521Z,1002.27
2018-07-28T02:04:45.949Z,1002.27
2018-07-28T02:05:55.622Z,1002.28
2018-07-28T02:07:04.787Z,1002.26
2018-07-28T02:08:13.936Z,1002.25
2018-07-28T02:09:23.384Z,1002.23
2018-07-28T02:10:32.282Z,1002.22
2018-07-28T02:11:41.703Z,1002.16
2018-07-28T02:12:51.109Z,1002.1
2018-07-28T02:14:00.779Z,1002.06
2018-07-28T02:15:10.436Z,1002.05
2018-07-28T02:16:19.593Z,1002.01
2018-07-28T02:17:28.750Z,1002.03
2018-07-28T02:18:37.658Z,1002.03
2018-07-28T02:19:47.069Z,1002.04
2018-07-28T02:20:56.722Z,1002.01
2018-07-28T02:22:05.880Z,1001.97
2018-07-28T02:23:14.775Z,1001.92
2018-07-28T02:24:24.189Z,1001.91
2018-07-28T02:25:32.829Z,1001.93
2018-07-28T02:26:42.259Z,1001.93
2018-07-28T02:27:50.909Z,1001.95
2018-07-28T02:28:59.808Z,1001.97
2018-07-28T02:30:09.471Z,1001.96
2018-07-28T02:31:19.163Z,1002.01
2018-07-28T02:32:28.576Z,1002.03
2018-07-28T02:33:38.031Z,1001.99
2018-07-28T02:34:47.449Z,1001.97
2018-07-28T02:35:56.944Z,1001.96
2018-07-28T02:37:06.351Z,1001.92
2018-07-28T02:38:15.777Z,1001.9
2018-07-28T02:39:25.206Z,1001.82
2018-07-28T02:40:35.148Z,1001.8
2018-07-28T02:41:44.585Z,1001.83
2018-07-28T02:42:54.246Z,1001.88
2018-07-28T02:44:03.403Z,1001.95
2018-07-28T02:45:13.084Z,1001.98
2018-07-28T02:46:23.043Z,1001.94
2018-07-28T02:47:32.725Z,1001.94
2018-07-28T02:48:42.156Z,1001.94
2018-07-28T02:49:51.839Z,1001.96
2018-07-28T02:51:01.255Z,1002
2018-07-28T02:52:11.191Z,1002.12
2018-07-28T02:53:20.893Z,1002.23
2018-07-28T02:54:30.091Z,1002.39
2018-07-28T02:55:39.758Z,1002.83
2018-07-28T02:56:49.175Z,1002.9
2018-07-28T02:57:58.598Z,1002.86
2018-07-28T02:59:08.028Z,1002.65
2018-07-28T03:00:17.025Z,1002.53
2018-07-28T03:01:27.642Z,1002.74
2018-07-28T03:02:37.313Z,1002.88
2018-07-28T03:03:46.728Z,1002.86
2018-07-28T03:04:55.935Z,1002.7
2018-07-28T03:06:05.112Z,1002.52
2018-07-28T03:07:14.786Z,1002.65
2018-07-28T03:08:24.205Z,1002.8
2018-07-28T03:09:33.386Z,1002.88
2018-07-28T03:10:43.059Z,1002.78
2018-07-28T03:11:53.074Z,1002.71
2018-07-28T03:13:01.969Z,1002.58
2018-07-28T03:14:11.894Z,1002.62
2018-07-28T03:15:21.588Z,1002.71
2018-07-28T03:16:30.777Z,1002.76
2018-07-28T03:17:40.443Z,1002.79
2018-07-28T03:18:50.363Z,1002.72
2018-07-28T03:20:00.308Z,1002.64
2018-07-28T03:21:09.730Z,1002.59
2018-07-28T03:22:19.171Z,1002.76
2018-07-28T03:23:28.336Z,1002.82
2018-07-28T03:24:38.023Z,1002.8
2018-07-28T03:25:47.446Z,1002.5
2018-07-28T03:26:57.548Z,1002.17
2018-07-28T03:28:07.222Z,1002.39
2018-07-28T03:29:16.658Z,1002.74
2018-07-28T03:30:26.326Z,1002.81
2018-07-28T03:31:35.998Z,1002.73
2018-07-28T03:32:45.952Z,1002.58
2018-07-28T03:33:55.113Z,1002.31
2018-07-28T03:35:04.012Z,1002.3
2018-07-28T03:36:13.934Z,1002.5
2018-07-28T03:37:23.848Z,1002.64
2018-07-28T03:38:33.251Z,1002.67
2018-07-28T03:39:42.909Z,1002.63
2018-07-28T03:40:51.800Z,1002.58
2018-07-28T03:42:00.949Z,1002.53
2018-07-28T03:43:10.378Z,1002.61
2018-07-28T03:44:19.798Z,1002.64
2018-07-28T03:45:29.482Z,1002.67
2018-07-28T03:46:39.399Z,1002.65
2018-07-28T03:47:48.810Z,1002.58
2018-07-28T03:48:58.206Z,1002.54
2018-07-28T03:50:07.150Z,1002.56
2018-07-28T03:51:17.101Z,1002.52
2018-07-28T03:52:26.255Z,1002.47
2018-07-28T03:53:35.662Z,1002.44
2018-07-28T03:54:44.836Z,1002.39
2018-07-28T03:55:53.981Z,1002.37
2018-07-28T03:57:03.386Z,1002.35
2018-07-28T03:58:12.038Z,1002.37
2018-07-28T03:59:21.197Z,1002.42
2018-07-28T04:00:30.360Z,1002.45
2018-07-28T04:01:39.783Z,1002.43
2018-07-28T04:02:48.433Z,1002.46
2018-07-28T04:03:57.836Z,1002.4
2018-07-28T04:05:07.812Z,1002.29
2018-07-28T04:06:17.490Z,1002.24
2018-07-28T04:07:26.907Z,1002.21
2018-07-28T04:08:35.861Z,1002.18
2018-07-28T04:09:45.535Z,1002.22
2018-07-28T04:10:55.217Z,1002.26
2018-07-28T04:12:04.358Z,1002.24
2018-07-28T04:13:14.027Z,1002.2
2018-07-28T04:14:23.469Z,1002.24
2018-07-28T04:15:32.902Z,1002.21
2018-07-28T04:16:41.802Z,1002.15
2018-07-28T04:17:51.474Z,1002.18
2018-07-28T04:19:01.128Z,1002.19
2018-07-28T04:20:10.550Z,1002.15
2018-07-28T04:21:19.959Z,1002.16
2018-07-28T04:22:29.367Z,1002.15
2018-07-28T04:23:38.850Z,1002.21
2018-07-28T04:24:48.534Z,1002.26
2018-07-28T04:25:58.189Z,1002.28
2018-07-28T04:27:07.850Z,1002.28
2018-07-28T04:28:17.279Z,1002.22
2018-07-28T04:29:26.774Z,1002.17
2018-07-28T04:30:36.497Z,1002.12
2018-07-28T04:31:46.155Z,1002.12
2018-07-28T04:32:55.561Z,1002.1
2018-07-28T04:34:04.709Z,1002.12
2018-07-28T04:35:14.372Z,1002.1
2018-07-28T04:36:23.535Z,1002.09
2018-07-28T04:37:32.949Z,1002.01
2018-07-28T04:38:42.148Z,1001.89
2018-07-28T04:39:51.297Z,1001.83
2018-07-28T04:41:00.706Z,1001.77
2018-07-28T04:42:10.116Z,1001.72
2018-07-28T04:43:19.530Z,1001.7
2018-07-28T04:44:28.160Z,1001.71
2018-07-28T04:45:37.845Z,1001.77
2018-07-28T04:46:47.244Z,1001.75
2018-07-28T04:47:56.426Z,1001.81
2018-07-28T04:49:05.839Z,1001.79
2018-07-28T04:50:14.997Z,1001.81
2018-07-28T04:51:25.346Z,1001.82
2018-07-28T04:52:35.425Z,1001.81
2018-07-28T04:53:45.089Z,1001.76
2018-07-28T04:54:54.228Z,1001.75
2018-07-28T04:56:03.637Z,1001.76
2018-07-28T04:57:13.044Z,1001.71
2018-07-28T04:58:22.456Z,1001.7
2018-07-28T04:59:31.351Z,1001.72
2018-07-28T05:00:40.753Z,1001.75
2018-07-28T05:01:49.890Z,1001.72
2018-07-28T05:02:58.781Z,1001.69
2018-07-28T05:04:08.182Z,1001.66
2018-07-28T05:05:17.347Z,1001.66
2018-07-28T05:06:25.988Z,1001.64
2018-07-28T05:07:35.528Z,1001.64
2018-07-28T05:08:46.719Z,1001.69
2018-07-28T05:09:55.883Z,1001.67
2018-07-28T05:11:05.291Z,1001.68
2018-07-28T05:12:14.437Z,1001.71
2018-07-28T05:13:23.853Z,1001.66
2018-07-28T05:14:33.019Z,1001.65
2018-07-28T05:15:41.917Z,1001.65
2018-07-28T05:16:51.354Z,1001.63
2018-07-28T05:18:00.314Z,1001.67
2018-07-28T05:19:09.464Z,1001.7
2018-07-28T05:20:18.628Z,1001.74
2018-07-28T05:21:27.522Z,1001.8
2018-07-28T05:22:36.925Z,1001.84
2018-07-28T05:23:46.104Z,1001.86
2018-07-28T05:24:56.077Z,1001.87
2018-07-28T05:26:05.735Z,1001.9
2018-07-28T05:27:14.882Z,1001.92
2018-07-28T05:28:24.044Z,1001.99
2018-07-28T05:29:33.209Z,1002.05
2018-07-28T05:30:43.524Z,1002.09
2018-07-28T05:31:52.945Z,1002.07
2018-07-28T05:33:01.830Z,1002.06
2018-07-28T05:34:11.504Z,1001.95
2018-07-28T05:35:20.400Z,1001.91
2018-07-28T05:36:29.571Z,1001.83
2018-07-28T05:37:39.507Z,1001.84
2018-07-28T05:38:49.202Z,1001.86
2018-07-28T05:39:59.054Z,1001.89
2018-07-28T05:41:09.001Z,1001.98
2018-07-28T05:42:18.154Z,1002.12
2018-07-28T05:43:27.087Z,1002.29
2018-07-28T05:44:36.502Z,1002.36
2018-07-28T05:45:45.917Z,1002.43
2018-07-28T05:46:55.781Z,1002.4
2018-07-28T05:48:05.437Z,1002.35
2018-07-28T05:49:15.113Z,1002.32
2018-07-28T05:50:24.287Z,1002.41
2018-07-28T05:51:33.188Z,1002.52
2018-07-28T05:52:42.849Z,1002.57
2018-07-28T05:53:51.755Z,1002.59
2018-07-28T05:55:00.920Z,1002.59
2018-07-28T05:56:09.823Z,1002.62
2018-07-28T05:57:18.970Z,1002.61
2018-07-28T05:58:28.627Z,1002.62
2018-07-28T05:59:37.537Z,1002.62
2018-07-28T06:00:47.211Z,1002.61
2018-07-28T06:01:56.370Z,1002.61
2018-07-28T06:03:05.582Z,1002.62
2018-07-28T06:04:15.258Z,1002.64
2018-07-28T06:05:24.912Z,1002.62
2018-07-28T06:06:34.587Z,1002.63
2018-07-28T06:07:43.233Z,1002.63
2018-07-28T06:08:52.377Z,1002.67
2018-07-28T06:10:01.526Z,1002.7
2018-07-28T06:11:10.691Z,1002.71
2018-07-28T06:12:19.853Z,1002.74
2018-07-28T06:13:29.270Z,1002.7
2018-07-28T06:14:38.693Z,1002.71
2018-07-28T06:15:48.109Z,1002.61
2018-07-28T06:16:57.591Z,1002.58
2018-07-28T06:18:07.019Z,1002.61
2018-07-28T06:19:15.911Z,1002.58
2018-07-28T06:20:25.172Z,1002.6
2018-07-28T06:21:34.687Z,1002.57
2018-07-28T06:22:44.114Z,1002.63
2018-07-28T06:23:53.801Z,1002.66
2018-07-28T06:25:02.690Z,1002.66
2018-07-28T06:26:12.106Z,1002.7
2018-07-28T06:27:21.004Z,1002.69
2018-07-28T06:28:30.411Z,1002.73
2018-07-28T06:29:39.837Z,1002.72
2018-07-28T06:30:48.998Z,1002.8
2018-07-28T06:31:58.186Z,1002.83
2018-07-28T06:33:07.755Z,1002.89
2018-07-28T06:34:16.682Z,1002.93
2018-07-28T06:35:25.830Z,1002.97
2018-07-28T06:36:35.028Z,1003.02
2018-07-28T06:37:44.539Z,1003.08
2018-07-28T06:38:53.744Z,1003.14
2018-07-28T06:40:02.904Z,1003.14
2018-07-28T06:41:12.413Z,1003.13
2018-07-28T06:42:21.326Z,1003.2
2018-07-28T06:43:31.033Z,1003.17
2018-07-28T06:44:39.933Z,1003.15
2018-07-28T06:45:49.337Z,1003.15
2018-07-28T06:46:58.496Z,1003.17
2018-07-28T06:48:07.913Z,1003.21
2018-07-28T06:49:17.125Z,1003.24
2018-07-28T06:50:26.084Z,1003.28
2018-07-28T06:51:36.016Z,1003.23
2018-07-28T06:52:45.694Z,1003.22
2018-07-28T06:53:54.603Z,1003.23
2018-07-28T06:55:04.118Z,1003.2
2018-07-28T06:56:14.288Z,1003.18
2018-07-28T06:57:23.970Z,1003.21
2018-07-28T06:58:32.904Z,1003.24
2018-07-28T06:59:42.604Z,1003.26
2018-07-28T07:00:52.053Z,1003.3
2018-07-28T07:02:00.940Z,1003.31
2018-07-28T07:03:09.574Z,1003.32
2018-07-28T07:04:18.721Z,1003.33
2018-07-28T07:05:28.665Z,1003.35
2018-07-28T07:06:38.368Z,1003.28
2018-07-28T07:07:47.792Z,1003.24
2018-07-28T07:08:57.201Z,1003.21
2018-07-28T07:10:06.372Z,1003.24
2018-07-28T07:11:16.599Z,1003.27
2018-07-28T07:12:25.556Z,1003.31
2018-07-28T07:13:34.971Z,1003.3
2018-07-28T07:14:44.443Z,1003.32
2018-07-28T07:15:53.861Z,1003.36
2018-07-28T07:17:03.327Z,1003.38
2018-07-28T07:18:12.749Z,1003.4
2018-07-28T07:19:21.400Z,1003.34
2018-07-28T07:20:31.089Z,1003.34
2018-07-28T07:21:39.814Z,1003.33
2018-07-28T07:22:49.229Z,1003.36
2018-07-28T07:23:58.393Z,1003.38
2018-07-28T07:25:07.829Z,1003.43
2018-07-28T07:26:17.272Z,1003.44
2018-07-28T07:27:26.439Z,1003.45
2018-07-28T07:28:36.373Z,1003.41
2018-07-28T07:29:45.819Z,1003.39
2018-07-28T07:30:55.235Z,1003.37
2018-07-28T07:32:04.646Z,1003.41
2018-07-28T07:33:14.056Z,1003.46
2018-07-28T07:34:23.471Z,1003.43
2018-07-28T07:35:32.108Z,1003.44
2018-07-28T07:36:41.254Z,1003.43
2018-07-28T07:37:50.938Z,1003.43
2018-07-28T07:38:59.597Z,1003.37
2018-07-28T07:40:08.778Z,1003.35
2018-07-28T07:41:18.449Z,1003.28
2018-07-28T07:42:27.866Z,1003.16
2018-07-28T07:43:37.267Z,1003.09
2018-07-28T07:44:46.420Z,1003.03
2018-07-28T07:45:55.874Z,1002.98
2018-07-28T07:47:05.293Z,1002.96
2018-07-28T07:48:15.634Z,1002.87
2018-07-28T07:49:24.841Z,1002.81
2018-07-28T07:50:34.246Z,1002.76
2018-07-28T07:51:43.920Z,1002.8
2018-07-28T07:52:53.077Z,1002.83
2018-07-28T07:54:02.248Z,1002.87
2018-07-28T07:55:11.399Z,1002.89
2018-07-28T07:56:20.283Z,1002.91
2018-07-28T07:57:29.438Z,1002.89
2018-07-28T07:58:38.893Z,1002.88
2018-07-28T07:59:48.297Z,1002.86
2018-07-28T08:00:57.959Z,1002.87
2018-07-28T08:02:07.377Z,1002.92
2018-07-28T08:03:16.799Z,1003
2018-07-28T08:04:25.455Z,1003.06
2018-07-28T08:05:34.862Z,1003.13
2018-07-28T08:06:43.754Z,1003.22
2018-07-28T08:07:53.159Z,1003.28
2018-07-28T08:09:02.084Z,1003.34
2018-07-28T08:10:11.238Z,1003.4
2018-07-28T08:11:20.650Z,1003.36
2018-07-28T08:12:30.060Z,1003.37
2018-07-28T08:13:39.649Z,1003.38
2018-07-28T08:14:48.798Z,1003.46
2018-07-28T08:15:57.955Z,1003.49
2018-07-28T08:17:07.376Z,1003.51
2018-07-28T08:18:17.050Z,1003.57
2018-07-28T08:19:26.211Z,1003.56
2018-07-28T08:20:35.615Z,1003.6
2018-07-28T08:21:45.276Z,1003.58
2018-07-28T08:22:54.428Z,1003.64
2018-07-28T08:24:03.317Z,1003.58
2018-07-28T08:25:12.720Z,1003.62
2018-07-28T08:26:21.653Z,1003.67
2018-07-28T08:27:30.907Z,1003.72
2018-07-28T08:28:39.848Z,1003.73
2018-07-28T08:29:49.009Z,1003.69
2018-07-28T08:30:58.425Z,1003.67
2018-07-28T08:32:08.132Z,1003.65
2018-07-28T08:33:17.817Z,1003.64
2018-07-28T08:34:28.002Z,1003.63
2018-07-28T08:35:37.661Z,1003.66
2018-07-28T08:36:47.349Z,1003.65
2018-07-28T08:37:56.555Z,1003.64
2018-07-28T08:39:05.464Z,1003.7
2018-07-28T08:40:14.633Z,1003.69
2018-07-28T08:41:23.920Z,1003.7
2018-07-28T08:42:34.011Z,1003.74
2018-07-28T08:43:43.346Z,1003.79
2018-07-28T08:44:53.293Z,1003.83
2018-07-28T08:46:01.953Z,1003.83
2018-07-28T08:47:11.360Z,1003.82
2018-07-28T08:48:20.544Z,1003.86
2018-07-28T08:49:29.724Z,1003.85
2018-07-28T08:50:40.725Z,1003.84
2018-07-28T08:51:49.902Z,1003.81
2018-07-28T08:52:59.325Z,1003.78
2018-07-28T08:54:09.026Z,1003.87
2018-07-28T08:55:18.181Z,1003.84
2018-07-28T08:56:27.876Z,1003.85
2018-07-28T08:57:36.518Z,1003.86
2018-07-28T08:58:45.939Z,1003.9
2018-07-28T08:59:55.088Z,1003.88
2018-07-28T09:01:03.986Z,1003.87
2018-07-28T09:02:12.888Z,1003.86
2018-07-28T09:03:22.551Z,1003.84
2018-07-28T09:04:31.710Z,1003.85
2018-07-28T09:05:40.621Z,1003.83
2018-07-28T09:06:50.305Z,1003.82
2018-07-28T09:07:59.448Z,1003.89
2018-07-28T09:09:08.358Z,1003.91
2018-07-28T09:10:17.510Z,1003.89
2018-07-28T09:11:26.909Z,1003.98
2018-07-28T09:12:36.576Z,1003.94
2018-07-28T09:13:45.490Z,1003.94
2018-07-28T09:14:54.633Z,1003.92
2018-07-28T09:16:04.114Z,1003.91
2018-07-28T09:17:13.545Z,1003.92
2018-07-28T09:18:22.183Z,1003.89
2018-07-28T09:19:31.595Z,1003.9
2018-07-28T09:20:40.748Z,1003.92
2018-07-28T09:21:50.428Z,1003.89
2018-07-28T09:22:59.598Z,1003.89
2018-07-28T09:24:09.108Z,1003.87
2018-07-28T09:25:18.785Z,1003.87
2018-07-28T09:26:27.941Z,1003.87
2018-07-28T09:27:36.846Z,1003.89
2018-07-28T09:28:46.009Z,1003.91
2018-07-28T09:29:55.164Z,1003.89
2018-07-28T09:31:04.573Z,1003.95
2018-07-28T09:32:13.996Z,1003.93
2018-07-28T09:33:23.394Z,1003.95
2018-07-28T09:34:32.799Z,1003.94
2018-07-28T09:35:42.455Z,1003.86
2018-07-28T09:36:51.383Z,1003.89
2018-07-28T09:38:00.723Z,1003.85
2018-07-28T09:39:09.632Z,1003.8
2018-07-28T09:40:19.554Z,1003.79
2018-07-28T09:41:28.701Z,1003.74
2018-07-28T09:42:37.902Z,1003.67
2018-07-28T09:43:47.330Z,1003.59
2018-07-28T09:44:56.747Z,1003.64
2018-07-28T09:46:05.644Z,1003.67
2018-07-28T09:47:15.081Z,1003.68
2018-07-28T09:48:24.225Z,1003.68
2018-07-28T09:49:33.643Z,1003.7
2018-07-28T09:50:43.053Z,1003.72
2018-07-28T09:51:52.995Z,1003.72
2018-07-28T09:53:02.158Z,1003.73
2018-07-28T09:54:11.603Z,1003.73
2018-07-28T09:55:20.752Z,1003.74
2018-07-28T09:56:30.426Z,1003.78
2018-07-28T09:57:39.333Z,1003.81
2018-07-28T09:58:48.259Z,1003.83
2018-07-28T09:59:57.930Z,1003.81
2018-07-28T10:01:06.866Z,1003.79
2018-07-28T10:02:16.025Z,1003.77
2018-07-28T10:03:25.178Z,1003.76
2018-07-28T10:04:34.092Z,1003.74
2018-07-28T10:05:43.506Z,1003.78
2018-07-28T10:06:53.182Z,1003.78
2018-07-28T10:08:02.663Z,1003.78
2018-07-28T10:09:12.346Z,1003.8
2018-07-28T10:10:21.236Z,1003.74
2018-07-28T10:11:30.638Z,1003.76
2018-07-28T10:12:40.057Z,1003.77
2018-07-28T10:13:49.726Z,1003.83
2018-07-28T10:14:58.879Z,1003.83
2018-07-28T10:16:08.109Z,1003.8
2018-07-28T10:17:18.501Z,1003.8
2018-07-28T10:18:28.176Z,1003.81
2018-07-28T10:19:37.077Z,1003.76
2018-07-28T10:20:46.267Z,1003.75
2018-07-28T10:21:55.160Z,1003.76
2018-07-28T10:23:04.120Z,1003.78
2018-07-28T10:24:13.849Z,1003.78
2018-07-28T10:25:22.755Z,1003.78
2018-07-28T10:26:31.647Z,1003.8
2018-07-28T10:27:41.323Z,1003.81
2018-07-28T10:28:50.212Z,1003.79
2018-07-28T10:29:59.633Z,1003.79
2018-07-28T10:31:09.447Z,1003.79
2018-07-28T10:32:18.854Z,1003.8
2018-07-28T10:33:28.265Z,1003.79
2018-07-28T10:34:37.690Z,1003.74
2018-07-28T10:35:47.163Z,1003.73
2018-07-28T10:36:56.332Z,1003.76
2018-07-28T10:38:05.235Z,1003.79
2018-07-28T10:39:14.883Z,1003.75
2018-07-28T10:40:24.379Z,1003.79
2018-07-28T10:41:33.527Z,1003.79
2018-07-28T10:42:42.674Z,1003.71
2018-07-28T10:43:52.593Z,1003.75
2018-07-28T10:45:01.754Z,1003.72
2018-07-28T10:46:11.165Z,1003.72
2018-07-28T10:47:20.851Z,1003.74
2018-07-28T10:48:30.046Z,1003.76
2018-07-28T10:49:39.713Z,1003.75
2018-07-28T10:50:49.405Z,1003.75
2018-07-28T10:51:58.880Z,1003.72
2018-07-28T10:53:07.961Z,1003.74
2018-07-28T10:54:17.378Z,1003.73
2018-07-28T10:55:26.878Z,1003.69
2018-07-28T10:56:37.213Z,1003.68
2018-07-28T10:57:46.381Z,1003.72
2018-07-28T10:58:55.287Z,1003.74
2018-07-28T11:00:04.243Z,1003.73
2018-07-28T11:01:14.950Z,1003.72
2018-07-28T11:02:24.879Z,1003.71
2018-07-28T11:03:34.028Z,1003.71
2018-07-28T11:04:43.443Z,1003.7
2018-07-28T11:05:52.870Z,1003.67
2018-07-28T11:07:02.299Z,1003.61
2018-07-28T11:08:12.218Z,1003.64
2018-07-28T11:09:21.638Z,1003.64
2018-07-28T11:10:30.817Z,1003.63
2018-07-28T11:11:40.225Z,1003.62
2018-07-28T11:12:49.388Z,1003.66
2018-07-28T11:13:58.871Z,1003.63
2018-07-28T11:15:07.759Z,1003.64
2018-07-28T11:16:16.922Z,1003.6
2018-07-28T11:17:26.354Z,1003.57
2018-07-28T11:18:35.544Z,1003.5
2018-07-28T11:19:45.896Z,1003.51
2018-07-28T11:20:54.598Z,1003.48
2018-07-28T11:22:03.798Z,1003.53
2018-07-28T11:23:12.960Z,1003.55
2018-07-28T11:24:22.147Z,1003.48
2018-07-28T11:25:32.132Z,1003.62
2018-07-28T11:26:41.547Z,1003.65
2018-07-28T11:27:50.750Z,1003.64
2018-07-28T11:29:00.421Z,1003.62
2018-07-28T11:30:09.320Z,1003.64
2018-07-28T11:31:18.747Z,1003.66
2018-07-28T11:32:28.157Z,1003.6
2018-07-28T11:33:37.319Z,1003.56
2018-07-28T11:34:46.488Z,1003.54
2018-07-28T11:35:55.636Z,1003.53
2018-07-28T11:37:05.041Z,1003.51
2018-07-28T11:38:14.203Z,1003.52
2018-07-28T11:39:23.362Z,1003.54
2018-07-28T11:40:32.265Z,1003.52
2018-07-28T11:41:41.162Z,1003.49
2018-07-28T11:42:50.591Z,1003.46
2018-07-28T11:43:59.494Z,1003.44
2018-07-28T11:45:08.981Z,1003.46
2018-07-28T11:46:18.652Z,1003.42
2018-07-28T11:47:28.355Z,1003.43
2018-07-28T11:48:37.278Z,1003.48
2018-07-28T11:49:46.698Z,1003.48
2018-07-28T11:50:55.330Z,1003.54
2018-07-28T11:52:04.234Z,1003.5
2018-07-28T11:53:13.640Z,1003.51
2018-07-28T11:54:22.553Z,1003.45
2018-07-28T11:55:32.225Z,1003.49
2018-07-28T11:56:41.381Z,1003.48
2018-07-28T11:57:51.043Z,1003.48
2018-07-28T11:59:00.024Z,1003.46
2018-07-28T12:00:09.428Z,1003.53
2018-07-28T12:01:18.337Z,1003.56
2018-07-28T12:02:27.999Z,1003.54
2018-07-28T12:03:37.145Z,1003.52
2018-07-28T12:04:46.339Z,1003.53
2018-07-28T12:05:55.812Z,1003.5
2018-07-28T12:07:04.964Z,1003.49
2018-07-28T12:08:13.600Z,1003.55
2018-07-28T12:09:22.763Z,1003.56
2018-07-28T12:10:32.200Z,1003.6
2018-07-28T12:11:41.619Z,1003.59
2018-07-28T12:12:51.794Z,1003.62
2018-07-28T12:14:00.960Z,1003.59
2018-07-28T12:15:10.378Z,1003.61
2018-07-28T12:16:19.272Z,1003.57
2018-07-28T12:17:28.683Z,1003.55
2018-07-28T12:18:37.889Z,1003.58
2018-07-28T12:19:47.332Z,1003.6
2018-07-28T12:20:56.521Z,1003.59
2018-07-28T12:22:06.193Z,1003.55
2018-07-28T12:23:15.106Z,1003.59
2018-07-28T12:24:24.070Z,1003.66
2018-07-28T12:25:33.314Z,1003.67
2018-07-28T12:26:42.468Z,1003.66
2018-07-28T12:27:51.624Z,1003.71
2018-07-28T12:29:01.045Z,1003.76
2018-07-28T12:30:10.450Z,1003.74
2018-07-28T12:31:19.615Z,1003.78
2018-07-28T12:32:29.053Z,1003.77
2018-07-28T12:33:37.948Z,1003.77
2018-07-28T12:34:47.378Z,1003.71
2018-07-28T12:35:57.286Z,1003.73
2018-07-28T12:37:06.451Z,1003.73
2018-07-28T12:38:15.858Z,1003.78
2018-07-28T12:39:25.014Z,1003.73
2018-07-28T12:40:34.167Z,1003.73
2018-07-28T12:41:43.601Z,1003.75
2018-07-28T12:42:53.020Z,1003.76
2018-07-28T12:44:01.911Z,1003.83
2018-07-28T12:45:11.067Z,1003.8
2018-07-28T12:46:20.476Z,1003.81
2018-07-28T12:47:30.136Z,1003.8
2018-07-28T12:48:39.536Z,1003.79
2018-07-28T12:49:49.033Z,1003.76
2018-07-28T12:50:58.699Z,1003.83
2018-07-28T12:52:07.843Z,1003.82
2018-07-28T12:53:17.014Z,1003.82
2018-07-28T12:54:25.920Z,1003.85
2018-07-28T12:55:35.387Z,1003.8
2018-07-28T12:56:44.608Z,1003.83
2018-07-28T12:57:54.012Z,1003.81
2018-07-28T12:59:03.697Z,1003.83
2018-07-28T13:00:13.112Z,1003.8
2018-07-28T13:01:22.528Z,1003.87
2018-07-28T13:02:32.219Z,1003.81
2018-07-28T13:03:41.673Z,1003.86
2018-07-28T13:04:51.164Z,1003.89
2018-07-28T13:06:00.324Z,1003.93
2018-07-28T13:07:09.735Z,1003.98
2018-07-28T13:08:18.997Z,1003.95
2018-07-28T13:09:27.940Z,1003.95
2018-07-28T13:10:37.864Z,1003.97
2018-07-28T13:11:46.783Z,1003.97
2018-07-28T13:12:55.705Z,1003.94
2018-07-28T13:14:04.596Z,1003.91
2018-07-28T13:15:14.009Z,1003.88
2018-07-28T13:16:23.171Z,1003.8
2018-07-28T13:17:32.827Z,1003.8
2018-07-28T13:18:42.544Z,1003.77
2018-07-28T13:19:51.209Z,1003.8
2018-07-28T13:21:00.107Z,1003.82
2018-07-28T13:22:09.793Z,1003.79
2018-07-28T13:23:19.217Z,1003.8
2018-07-28T13:24:28.375Z,1003.77
2018-07-28T13:25:38.044Z,1003.76
2018-07-28T13:26:47.708Z,1003.77
2018-07-28T13:27:56.867Z,1003.76
2018-07-28T13:29:05.542Z,1003.77
2018-07-28T13:30:14.979Z,1003.82
2018-07-28T13:31:23.639Z,1003.83
2018-07-28T13:32:32.812Z,1003.79
2018-07-28T13:33:42.741Z,1003.82
2018-07-28T13:34:51.904Z,1003.88
2018-07-28T13:36:00.800Z,1003.93
2018-07-28T13:37:10.236Z,1003.99
2018-07-28T13:38:19.401Z,1004.03
2018-07-28T13:39:28.551Z,1003.93
2018-07-28T13:40:38.215Z,1004.03
2018-07-28T13:41:47.881Z,1004.07
2018-07-28T13:42:57.304Z,1004.02
2018-07-28T13:44:06.712Z,1003.92
2018-07-28T13:45:16.127Z,1003.89
2018-07-28T13:46:25.274Z,1003.83
2018-07-28T13:47:34.428Z,1003.76
2018-07-28T13:48:44.197Z,1003.78
2018-07-28T13:49:53.647Z,1003.78
2018-07-28T13:51:03.056Z,1003.79
2018-07-28T13:52:12.475Z,1003.81
2018-07-28T13:53:22.192Z,1003.77
2018-07-28T13:54:32.292Z,1003.76
2018-07-28T13:55:41.710Z,1003.78
2018-07-28T13:56:51.137Z,1003.74
2018-07-28T13:58:00.825Z,1003.7
2018-07-28T13:59:10.015Z,1003.69
2018-07-28T14:00:19.563Z,1003.65
2018-07-28T14:01:29.871Z,1003.66
2018-07-28T14:02:39.563Z,1003.65